Time;durP1;ratioP1;P1;durP2;ratioP2;P2;SDS_P1;SDS_P2;PMS_P1;PMS_P2;Temp;Humidity;BMP_temperature;BMP_pressure;BME280_temperature;BME280_humidity;BME280_pressure;Samples;Min_cycle;Max_cycle;Signal;HPM_P1;HPM_P2
2023/06/12 00:01:57;;;;;;;14.05;7.25;;;;;;;21.19;50.22;101423.66;5011520;28;20065;-73
2023/06/12 00:04:23;;;;;;;10.27;6.38;;;;;;;21.15;50.80;101430.69;5011765;28;20036;-73
2023/06/12 00:06:50;;;;;;;9.32;6.43;;;;;;;21.10;52.08;101427.91;5011509;28;20030;-73
2023/06/12 00:09:15;;;;;;;11.48;6.60;;;;;;;21.12;52.03;101431.19;5011869;28;20113;-74
2023/06/12 00:11:41;;;;;;;9.52;5.93;;;;;;;21.11;51.20;101427.63;5011525;28;20029;-74
2023/06/12 00:14:07;;;;;;;11.07;6.38;;;;;;;21.11;51.41;101426.81;5011394;28;20057;-74
2023/06/12 00:16:33;;;;;;;12.30;6.57;;;;;;;21.02;51.95;101419.13;5011475;28;20394;-73
2023/06/12 00:18:58;;;;;;;12.32;6.15;;;;;;;21.13;50.25;101421.97;5011291;28;20076;-74
2023/06/12 00:21:23;;;;;;;7.68;5.47;;;;;;;21.11;52.30;101418.69;5011243;28;20053;-73
2023/06/12 00:23:49;;;;;;;9.88;6.28;;;;;;;21.09;51.91;101424.38;5011112;28;20334;-73
2023/06/12 00:26:14;;;;;;;10.95;6.55;;;;;;;21.01;52.30;101428.34;5011046;28;20061;-73
2023/06/12 00:28:40;;;;;;;10.57;6.70;;;;;;;21.03;51.35;101433.50;5007223;28;20346;-74
2023/06/12 00:31:05;;;;;;;11.27;6.63;;;;;;;20.89;53.07;101430.38;4992329;28;20104;-73
2023/06/12 00:33:31;;;;;;;9.63;5.90;;;;;;;20.85;52.90;101423.78;4992345;28;20030;-73
2023/06/12 00:35:56;;;;;;;11.80;6.22;;;;;;;20.80;52.12;101421.00;4992396;28;20031;-74
2023/06/12 00:38:22;;;;;;;14.07;7.63;;;;;;;20.66;52.93;101420.56;4992209;28;20045;-73
2023/06/12 00:40:48;;;;;;;11.60;6.65;;;;;;;20.60;53.07;101428.88;4992052;28;20046;-73
2023/06/12 00:43:15;;;;;;;11.77;6.55;;;;;;;20.50;52.48;101422.22;5010704;28;20038;-74
2023/06/12 00:45:40;;;;;;;11.40;6.88;;;;;;;20.46;53.19;101429.22;5010710;28;20385;-74
2023/06/12 00:48:06;;;;;;;11.82;6.85;;;;;;;20.53;52.96;101423.59;5010731;28;20087;-73
2023/06/12 00:50:32;;;;;;;10.43;6.55;;;;;;;20.45;54.49;101418.59;5010686;28;20164;-74
2023/06/12 00:52:59;;;;;;;12.80;7.18;;;;;;;20.46;53.07;101418.38;5010716;28;20044;-73
2023/06/12 00:55:26;;;;;;;7.80;5.97;;;;;;;20.42;53.37;101422.63;5010526;28;20034;-74
2023/06/12 00:57:51;;;;;;;13.40;7.03;;;;;;;20.44;53.13;101423.22;5010509;28;20030;-74
2023/06/12 01:00:19;;;;;;;11.20;6.90;;;;;;;20.46;52.91;101422.94;5010437;28;20049;-74
2023/06/12 01:02:56;;;;;;;11.18;6.20;;;;;;;20.46;54.71;101422.94;5010406;28;20068;-74
2023/06/12 01:05:32;;;;;;;9.35;6.63;;;;;;;20.37;54.34;101419.84;5010286;28;20103;-74
2023/06/12 01:08:16;;;;;;;12.60;6.95;;;;;;;20.33;53.63;101414.13;5010413;28;20029;-74
2023/06/12 01:10:56;;;;;;;11.57;7.03;;;;;;;20.26;54.60;101420.78;5010447;28;20029;-73
2023/06/12 01:13:22;;;;;;;11.88;7.22;;;;;;;20.24;55.57;101421.00;5010207;28;20030;-74
2023/06/12 01:15:48;;;;;;;11.85;7.18;;;;;;;20.18;56.58;101416.59;5010189;28;20048;-74
2023/06/12 01:18:14;;;;;;;12.80;7.80;;;;;;;20.20;56.16;101410.91;5010110;28;20037;-74
2023/06/12 01:20:40;;;;;;;12.40;7.25;;;;;;;20.14;55.72;101418.94;5010120;28;20056;-73
2023/06/12 01:23:13;;;;;;;15.48;7.78;;;;;;;20.13;54.47;101421.91;5010120;28;20033;-74
2023/06/12 01:26:10;;;;;;;9.98;6.80;;;;;;;20.10;55.50;101422.41;5009784;28;20041;-74
2023/06/12 01:29:11;;;;;;;13.40;7.70;;;;;;;20.06;55.06;101426.66;4992114;28;20029;-74
2023/06/12 01:32:01;;;;;;;11.73;6.97;;;;;;;19.98;55.32;101422.47;5002211;28;20045;-74
2023/06/12 01:34:56;;;;;;;17.95;8.02;;;;;;;19.95;55.68;101428.38;5009966;28;20014;-74
2023/06/12 01:37:37;;;;;;;12.77;7.15;;;;;;;19.83;56.32;101424.91;5009652;28;20121;-74
2023/06/12 01:40:08;;;;;;;13.00;7.63;;;;;;;19.78;56.80;101419.41;4973438;28;20030;-74
2023/06/12 01:42:33;;;;;;;11.50;7.38;;;;;;;19.78;56.63;101419.41;4973373;28;20045;-74
2023/06/12 01:44:59;;;;;;;11.77;7.68;;;;;;;19.78;56.61;101420.25;4991020;28;20030;-73
2023/06/12 01:47:25;;;;;;;11.73;7.35;;;;;;;19.72;58.29;101429.34;4990816;28;20038;-74
2023/06/12 01:49:50;;;;;;;13.85;7.93;;;;;;;19.68;58.16;101423.59;4991582;28;20060;-74
2023/06/12 01:52:15;;;;;;;10.80;7.45;;;;;;;19.62;58.56;101421.84;4990911;28;20066;-74
2023/06/12 01:54:41;;;;;;;11.88;7.88;;;;;;;19.62;59.40;101416.44;5001257;28;20038;-74
2023/06/12 01:57:06;;;;;;;11.52;7.55;;;;;;;19.55;60.33;101426.59;5009270;28;20489;-74
2023/06/12 01:59:34;;;;;;;10.73;7.30;;;;;;;19.53;59.03;101428.69;5009481;28;20026;-74
2023/06/12 02:02:00;;;;;;;11.90;8.07;;;;;;;19.41;58.33;101428.75;5006116;28;20027;-74
2023/06/12 02:04:28;;;;;;;11.88;7.35;;;;;;;19.38;58.51;101426.53;4990569;28;20390;-74
2023/06/12 02:06:53;;;;;;;11.95;7.00;;;;;;;19.35;58.88;101420.78;4990818;28;20027;-74
2023/06/12 02:09:19;;;;;;;10.15;7.13;;;;;;;19.27;58.01;101413.88;4972997;28;20045;-74
2023/06/12 02:11:44;;;;;;;12.73;7.18;;;;;;;19.29;58.08;101421.75;4990335;28;20494;-74
2023/06/12 02:14:10;;;;;;;11.88;6.85;;;;;;;19.33;58.81;101420.19;4990435;28;20038;-74
2023/06/12 02:16:35;;;;;;;13.13;7.97;;;;;;;19.27;61.02;101419.28;4972677;28;20026;-74
2023/06/12 02:19:01;;;;;;;12.63;7.72;;;;;;;19.26;60.83;101418.47;4990051;28;20030;-74
2023/06/12 02:21:26;;;;;;;18.85;7.43;;;;;;;19.23;61.78;101420.81;4990274;28;20478;-74
2023/06/12 02:23:52;;;;;;;13.13;8.52;;;;;;;19.21;60.79;101417.53;4990118;28;20116;-74
2023/06/12 02:26:17;;;;;;;14.77;8.27;;;;;;;19.24;61.46;101422.47;4990236;28;20050;-74
2023/06/12 02:28:43;;;;;;;11.20;7.90;;;;;;;19.19;61.10;101419.66;4990306;28;20030;-74
2023/06/12 02:31:08;;;;;;;14.20;7.70;;;;;;;19.14;60.77;101411.44;4990271;28;20157;-74
2023/06/12 02:33:34;;;;;;;12.55;8.20;;;;;;;19.15;60.38;101415.78;4990579;28;20076;-74
2023/06/12 02:36:00;;;;;;;13.98;7.90;;;;;;;19.07;62.05;101411.56;4990080;28;20099;-73
2023/06/12 02:38:26;;;;;;;13.77;8.40;;;;;;;19.03;60.55;101415.81;4990101;28;20085;-74
2023/06/12 02:40:51;;;;;;;16.67;8.48;;;;;;;19.01;60.97;101413.34;4989930;28;20121;-74
2023/06/12 02:43:16;;;;;;;13.48;8.82;;;;;;;18.88;61.09;101405.50;4972407;28;20509;-73
2023/06/12 02:45:42;;;;;;;13.93;8.60;;;;;;;18.95;60.96;101414.31;4989968;28;20038;-74
2023/06/12 02:48:07;;;;;;;18.00;8.73;;;;;;;18.87;61.55;101406.59;4990126;28;20030;-74
2023/06/12 02:50:33;;;;;;;17.30;9.15;;;;;;;18.86;61.31;101418.44;4989709;28;20030;-74
2023/06/12 02:52:58;;;;;;;13.23;9.00;;;;;;;18.83;61.29;101419.72;4990111;28;20033;-74
2023/06/12 02:55:23;;;;;;;14.63;8.80;;;;;;;18.78;61.57;101419.63;4989956;28;20374;-74
2023/06/12 02:57:48;;;;;;;15.18;9.18;;;;;;;18.76;61.64;101416.34;4989945;28;20370;-74
2023/06/12 03:00:14;;;;;;;14.82;9.77;;;;;;;18.79;62.53;101415.06;4989992;28;20064;-74
2023/06/12 03:02:42;;;;;;;12.25;8.18;;;;;;;18.80;61.71;101416.69;4989990;28;20081;-74
2023/06/12 03:05:12;;;;;;;15.32;10.35;;;;;;;18.75;61.61;101416.59;4992934;28;20404;-74
2023/06/12 03:07:40;;;;;;;18.60;9.25;;;;;;;18.72;61.78;101417.84;4993931;28;20038;-74
2023/06/12 03:10:06;;;;;;;13.85;8.82;;;;;;;18.66;61.98;101413.41;5007593;28;20070;-73
2023/06/12 03:12:31;;;;;;;15.85;8.52;;;;;;;18.68;63.08;101418.56;5012540;28;20089;-73
2023/06/12 03:14:58;;;;;;;11.75;8.07;;;;;;;18.65;63.08;101417.13;4994897;28;20030;-74
2023/06/12 03:17:23;;;;;;;15.63;9.18;;;;;;;18.60;63.45;101412.47;5012398;28;20038;-73
2023/06/12 03:19:48;;;;;;;12.68;8.32;;;;;;;18.61;63.47;101416.81;5012384;28;20045;-74
2023/06/12 03:22:14;;;;;;;16.33;8.93;;;;;;;18.62;63.26;101417.63;5012499;28;20036;-74
2023/06/12 03:24:39;;;;;;;17.52;8.80;;;;;;;18.56;63.17;101419.38;5012114;28;20077;-73
2023/06/12 03:27:05;;;;;;;16.88;8.50;;;;;;;18.57;64.99;101421.03;5012333;28;20034;-74
2023/06/12 03:29:31;;;;;;;13.05;8.35;;;;;;;18.49;66.87;101412.47;5012198;28;20093;-74
2023/06/12 03:31:57;;;;;;;14.38;8.90;;;;;;;18.47;65.35;101417.28;5012156;28;20115;-74
2023/06/12 03:34:22;;;;;;;14.07;8.38;;;;;;;18.49;65.01;101417.88;5012056;28;20503;-74
2023/06/12 03:36:47;;;;;;;16.65;9.57;;;;;;;18.39;64.94;101413.88;4999597;28;20049;-74
2023/06/12 03:39:13;;;;;;;15.13;9.20;;;;;;;18.48;65.00;101417.03;4993318;28;20026;-74
2023/06/12 03:41:54;;;;;;;14.10;8.68;;;;;;;18.40;64.81;101418.22;4993854;28;20038;-74
2023/06/12 03:44:19;;;;;;;23.13;10.98;;;;;;;18.35;65.38;101412.69;5010019;28;20481;-74
2023/06/12 03:46:45;;;;;;;21.17;9.00;;;;;;;18.30;64.99;101409.06;5011821;28;20037;-74
2023/06/12 03:49:10;;;;;;;16.52;9.02;;;;;;;18.37;64.13;101423.28;5011898;28;20029;-74
2023/06/12 03:51:35;;;;;;;15.27;9.32;;;;;;;18.40;64.55;101426.31;5011824;28;20076;-74
2023/06/12 03:54:01;;;;;;;13.10;7.82;;;;;;;18.37;64.39;101426.78;4995142;28;20157;-74
2023/06/12 03:56:27;;;;;;;23.35;10.05;;;;;;;18.38;64.68;101430.31;4975429;28;20532;-74
2023/06/12 03:58:52;;;;;;;15.13;9.45;;;;;;;18.39;65.37;101430.09;4993009;28;20052;-74
2023/06/12 04:01:18;;;;;;;18.73;10.05;;;;;;;18.47;64.53;101423.53;4992817;28;20030;-74
2023/06/12 04:03:44;;;;;;;16.38;9.65;;;;;;;18.49;64.64;101426.78;4975385;28;20042;-74
2023/06/12 04:06:10;;;;;;;17.13;9.85;;;;;;;18.48;64.68;101427.84;5009029;28;20041;-74
2023/06/12 04:08:37;;;;;;;13.27;8.05;;;;;;;18.51;64.63;101437.38;4994799;28;20034;-74
2023/06/12 04:11:03;;;;;;;13.73;8.10;;;;;;;18.51;65.51;101443.59;4993044;28;20124;-74
2023/06/12 04:13:29;;;;;;;15.23;8.43;;;;;;;18.56;64.42;101440.19;5004230;28;20073;-74
2023/06/12 04:15:57;;;;;;;15.00;8.25;;;;;;;18.61;64.89;101445.72;5010514;28;20037;-74
2023/06/12 04:18:22;;;;;;;19.58;9.73;;;;;;;18.61;65.94;101448.41;5011389;28;20030;-74
2023/06/12 04:20:49;;;;;;;18.00;9.63;;;;;;;18.61;65.11;101451.13;5011149;28;20389;-74
2023/06/12 04:23:16;;;;;;;18.40;9.05;;;;;;;18.61;65.93;101459.22;5011422;28;20092;-74
2023/06/12 04:25:42;;;;;;;16.13;8.90;;;;;;;18.66;65.51;101458.53;5010886;28;20049;-74
2023/06/12 04:28:13;;;;;;;14.38;8.23;;;;;;;18.72;65.41;101461.09;5011095;28;20374;-74
2023/06/12 04:30:39;;;;;;;14.75;8.48;;;;;;;18.77;65.68;101453.13;5011191;28;20068;-74
2023/06/12 04:33:04;;;;;;;13.20;8.82;;;;;;;18.72;66.37;101452.97;5011026;28;20485;-75
2023/06/12 04:35:33;;;;;;;15.52;8.40;;;;;;;18.85;65.29;101454.66;4992644;28;20028;-74
2023/06/12 04:37:58;;;;;;;13.50;8.40;;;;;;;18.83;64.60;101457.56;4992356;28;20032;-75
2023/06/12 04:40:24;;;;;;;21.50;9.07;;;;;;;18.94;64.09;101452.38;4991118;28;20034;-74
2023/06/12 04:42:53;;;;;;;13.60;7.70;;;;;;;19.12;63.73;101432.50;5010850;28;20108;-74
2023/06/12 04:45:20;;;;;;;16.83;8.00;;;;;;;19.46;61.93;101453.19;5010629;28;20037;-74
2023/06/12 04:47:46;;;;;;;14.43;8.65;;;;;;;19.53;60.89;101452.25;5010767;28;20033;-74
2023/06/12 04:50:12;;;;;;;16.35;9.40;;;;;;;19.48;61.30;101444.84;5003069;28;20035;-75
2023/06/12 04:52:39;;;;;;;16.60;8.85;;;;;;;19.42;60.81;101448.53;5005073;28;20044;-74
2023/06/12 04:55:08;;;;;;;13.00;8.10;;;;;;;19.41;60.90;101444.16;5002425;28;20034;-74
2023/06/12 04:57:36;;;;;;;15.18;8.63;;;;;;;19.37;61.31;101435.72;5010650;28;20473;-74
2023/06/12 05:00:05;;;;;;;14.48;8.45;;;;;;;19.44;60.20;101441.81;5010769;28;20060;-74
2023/06/12 05:02:33;;;;;;;22.33;8.90;;;;;;;19.40;61.10;101442.53;5010306;28;20065;-74
2023/06/12 05:05:00;;;;;;;16.15;7.93;;;;;;;19.55;59.74;101448.22;5002373;28;20034;-73
2023/06/12 05:07:25;;;;;;;14.68;8.48;;;;;;;19.89;58.71;101451.03;5008084;28;20030;-74
2023/06/12 05:09:50;;;;;;;12.52;6.65;;;;;;;20.19;58.16;101449.91;4992459;28;20083;-74
2023/06/12 05:12:16;;;;;;;14.38;7.85;;;;;;;20.23;58.48;101457.28;5010354;28;20030;-74
2023/06/12 05:14:45;;;;;;;12.55;7.68;;;;;;;20.23;59.48;101451.06;5010153;28;20120;-74
2023/06/12 05:17:11;;;;;;;11.60;7.70;;;;;;;20.21;60.11;101454.00;5010154;28;20077;-75
2023/06/12 05:19:40;;;;;;;9.70;7.30;;;;;;;20.34;60.61;101458.28;5010110;28;20030;-74
2023/06/12 05:22:06;;;;;;;14.45;8.13;;;;;;;20.35;58.80;101447.16;5010159;28;20116;-74
2023/06/12 05:24:32;;;;;;;13.90;7.68;;;;;;;20.29;57.51;101450.88;5009857;28;20142;-74
2023/06/12 05:26:58;;;;;;;10.32;6.45;;;;;;;20.30;57.38;101465.25;5009442;28;20030;-74
2023/06/12 05:29:23;;;;;;;12.93;7.38;;;;;;;20.31;57.50;101461.47;4991963;28;20068;-75
2023/06/12 05:31:48;;;;;;;12.07;7.07;;;;;;;20.34;59.17;101466.41;4992127;28;20045;-74
2023/06/12 05:34:14;;;;;;;19.27;7.10;;;;;;;20.39;59.05;101449.41;5009900;28;20036;-74
2023/06/12 05:36:39;;;;;;;10.88;6.97;;;;;;;20.45;58.81;101448.41;5009816;28;20030;-75
2023/06/12 05:39:05;;;;;;;13.48;7.28;;;;;;;20.50;58.90;101454.72;5009970;28;20036;-74
2023/06/12 05:41:31;;;;;;;13.70;7.03;;;;;;;20.64;58.71;101449.00;5009568;28;20042;-74
2023/06/12 05:43:56;;;;;;;21.73;8.70;;;;;;;20.76;57.54;101447.81;5010044;28;20034;-74
2023/06/12 05:46:21;;;;;;;42.97;8.15;;;;;;;20.83;57.27;101450.34;4991827;28;20034;-75
2023/06/12 05:48:48;;;;;;;13.30;7.07;;;;;;;20.86;57.86;101451.75;5009592;28;20072;-74
2023/06/12 05:51:14;;;;;;;15.60;7.32;;;;;;;20.87;57.34;101451.47;4997369;28;20345;-74
2023/06/12 05:53:39;;;;;;;13.40;7.50;;;;;;;21.07;57.18;101455.53;4990535;28;20066;-74
2023/06/12 05:56:05;;;;;;;13.27;7.18;;;;;;;21.39;54.78;101450.25;4990979;28;20049;-74
2023/06/12 05:58:31;;;;;;;16.63;7.70;;;;;;;21.47;54.20;101448.97;4990667;28;20046;-74
2023/06/12 06:00:56;;;;;;;11.80;6.35;;;;;;;21.52;55.20;101449.03;4990455;28;20113;-74
2023/06/12 06:03:23;;;;;;;12.52;6.95;;;;;;;21.60;55.61;101456.72;4990416;28;20386;-75
2023/06/12 06:05:49;;;;;;;13.93;8.10;;;;;;;21.56;54.71;101458.28;4990505;28;20030;-75
2023/06/12 06:08:14;;;;;;;12.75;7.00;;;;;;;21.53;52.97;101458.81;4990409;28;20034;-74
2023/06/12 06:10:40;;;;;;;15.55;7.57;;;;;;;21.50;53.75;101452.00;5004668;28;20105;-74
2023/06/12 06:13:06;;;;;;;27.98;8.85;;;;;;;21.54;53.51;101458.56;5003657;28;20627;-74
2023/06/12 06:15:31;;;;;;;13.93;8.48;;;;;;;21.52;53.19;101462.63;4990455;28;20026;-74
2023/06/12 06:17:57;;;;;;;13.75;7.13;;;;;;;21.53;52.74;101456.91;4972832;28;20417;-74
2023/06/12 06:20:22;;;;;;;14.98;8.05;;;;;;;21.54;53.85;101460.47;4990401;28;20140;-74
2023/06/12 06:22:47;;;;;;;13.43;7.85;;;;;;;21.56;51.94;101456.44;4990256;28;20040;-74
2023/06/12 06:25:15;;;;;;;17.40;9.05;;;;;;;21.59;52.24;101455.09;4990083;28;20081;-74
2023/06/12 06:27:40;;;;;;;15.35;8.32;;;;;;;21.60;53.38;101462.16;4990179;28;20092;-74
2023/06/12 06:30:06;;;;;;;13.25;9.05;;;;;;;21.59;52.99;101455.09;4990345;28;20833;-74
2023/06/12 06:32:32;;;;;;;15.65;8.52;;;;;;;21.66;52.68;101461.94;4990035;28;20037;-74
2023/06/12 06:34:57;;;;;;;13.85;8.32;;;;;;;21.73;53.92;101464.47;4990161;28;20753;-74
2023/06/12 06:37:22;;;;;;;14.15;8.52;;;;;;;21.81;52.59;101457.75;4989955;28;20026;-75
2023/06/12 06:39:48;;;;;;;19.30;7.50;;;;;;;21.91;53.37;101454.31;4989675;28;20057;-74
2023/06/12 06:42:13;;;;;;;11.95;7.47;;;;;;;21.98;52.41;101461.19;4972458;28;20041;-76
2023/06/12 06:44:39;;;;;;;11.20;6.75;;;;;;;22.05;53.63;101456.31;4990015;28;20462;-76
2023/06/12 06:47:04;;;;;;;12.25;7.38;;;;;;;22.12;52.96;101458.84;4990014;28;20069;-76
2023/06/12 06:49:30;;;;;;;12.43;7.07;;;;;;;22.15;52.06;101463.75;4989979;28;20035;-76
2023/06/12 06:51:56;;;;;;;14.35;8.93;;;;;;;22.15;51.24;101461.03;4989829;28;20397;-77
2023/06/12 06:54:22;;;;;;;13.05;6.75;;;;;;;22.18;51.17;101467.84;4989996;28;20670;-76
2023/06/12 06:56:48;;;;;;;13.43;6.88;;;;;;;22.22;51.86;101460.88;4989874;28;20085;-75
2023/06/12 06:59:14;;;;;;;16.10;8.07;;;;;;;22.30;54.77;101450.31;4989608;28;20108;-77
2023/06/12 07:01:40;;;;;;;9.35;5.97;;;;;;;22.37;51.96;101449.25;4989785;28;20086;-75
2023/06/12 07:04:05;;;;;;;16.30;8.85;;;;;;;22.47;52.80;101457.50;4989257;28;20037;-73
2023/06/12 07:06:31;;;;;;;13.75;8.05;;;;;;;22.54;52.22;101463.53;4989394;28;20034;-77
2023/06/12 07:08:56;;;;;;;11.65;7.82;;;;;;;22.58;52.26;101450.22;4989720;28;20046;-76
2023/06/12 07:11:22;;;;;;;11.80;7.32;;;;;;;22.62;51.89;101456.78;4990116;28;20085;-76
2023/06/12 07:13:47;;;;;;;10.95;7.40;;;;;;;22.68;51.34;101461.16;4989733;28;20493;-76
2023/06/12 07:16:13;;;;;;;14.65;7.68;;;;;;;22.73;50.04;101450.31;4989721;28;20576;-76
2023/06/12 07:18:39;;;;;;;10.45;6.43;;;;;;;22.72;51.46;101438.63;4989539;28;20038;-76
2023/06/12 07:21:04;;;;;;;12.52;7.05;;;;;;;22.88;51.93;101449.59;4989744;28;20030;-77
2023/06/12 07:23:30;;;;;;;13.85;7.00;;;;;;;22.97;51.43;101440.66;4989735;28;20026;-77
2023/06/12 07:25:55;;;;;;;13.13;7.85;;;;;;;23.04;51.43;101440.44;4989443;28;20057;-77
2023/06/12 07:28:20;;;;;;;11.48;6.90;;;;;;;23.07;50.30;101447.25;4989658;28;20397;-77
2023/06/12 07:30:46;;;;;;;11.80;7.18;;;;;;;23.10;49.66;101449.44;4989333;28;20073;-77
2023/06/12 07:33:11;;;;;;;16.40;7.22;;;;;;;23.08;49.71;101440.72;4989045;28;20030;-75
2023/06/12 07:35:36;;;;;;;14.38;7.75;;;;;;;23.11;50.70;101440.22;4988350;28;20031;-77
2023/06/12 07:38:02;;;;;;;12.88;7.13;;;;;;;23.17;49.30;101442.66;5007813;28;20026;-77
2023/06/12 07:40:28;;;;;;;14.07;7.50;;;;;;;23.22;49.20;101436.44;4993153;28;20050;-77
2023/06/12 07:42:53;;;;;;;12.82;7.40;;;;;;;23.23;49.01;101435.31;5000477;28;20030;-77
2023/06/12 07:45:18;;;;;;;13.82;6.95;;;;;;;23.26;48.85;101442.13;5008407;28;20026;-74
2023/06/12 07:47:45;;;;;;;13.35;7.38;;;;;;;23.37;48.67;101449.25;4997144;28;20081;-76
2023/06/12 07:50:11;;;;;;;15.77;6.70;;;;;;;23.44;48.90;101446.28;4996626;28;20033;-77
2023/06/12 07:52:36;;;;;;;14.23;7.15;;;;;;;23.50;47.59;101439.75;4992279;28;20455;-76
2023/06/12 07:55:03;;;;;;;15.52;7.22;;;;;;;23.55;49.18;101442.50;4993005;28;20076;-75
2023/06/12 07:57:29;;;;;;;12.80;6.57;;;;;;;23.68;50.25;101441.16;4975004;28;20081;-76
2023/06/12 07:59:54;;;;;;;15.10;7.15;;;;;;;23.74;47.50;101440.94;4993032;28;20035;-76
2023/06/12 08:02:20;;;;;;;10.20;6.30;;;;;;;23.81;49.23;101440.66;4992939;28;20023;-76
2023/06/12 08:04:46;;;;;;;15.65;7.22;;;;;;;23.91;47.69;101442.56;4975588;28;20026;-77
2023/06/12 08:07:15;;;;;;;13.25;7.45;;;;;;;23.99;47.06;101447.47;4992685;28;20112;-77
2023/06/12 08:09:41;;;;;;;11.13;6.63;;;;;;;24.03;46.82;101449.41;4992880;28;20046;-77
2023/06/12 08:12:08;;;;;;;11.02;6.43;;;;;;;24.25;47.67;101432.75;4992736;28;20530;-76
2023/06/12 08:14:33;;;;;;;12.02;6.63;;;;;;;24.82;47.31;101435.41;4975069;28;20442;-76
2023/06/12 08:16:58;;;;;;;12.02;6.50;;;;;;;26.14;42.59;101442.00;4992701;28;20034;-77
2023/06/12 08:19:24;;;;;;;12.70;6.55;;;;;;;27.81;39.01;101433.19;4992550;28;20089;-78
2023/06/12 08:21:50;;;;;;;11.48;6.68;;;;;;;29.14;35.89;101434.28;4974868;28;20038;-77
2023/06/12 08:24:15;;;;;;;10.43;5.70;;;;;;;30.21;34.95;101433.69;4974737;28;20126;-77
2023/06/12 08:26:41;;;;;;;9.88;6.20;;;;;;;31.21;32.30;101424.81;4992367;28;20432;-76
2023/06/12 08:29:06;;;;;;;10.68;7.15;;;;;;;32.82;30.27;101438.50;4975187;28;20124;-76
2023/06/12 08:31:33;;;;;;;9.23;5.93;;;;;;;33.84;29.92;101426.19;4992406;28;20137;-76
2023/06/12 08:33:58;;;;;;;10.68;5.95;;;;;;;34.94;26.58;101419.19;4992272;28;20084;-77
2023/06/12 08:36:24;;;;;;;8.48;5.45;;;;;;;35.10;26.29;101434.75;4992804;28;20110;-77
2023/06/12 08:38:49;;;;;;;9.23;5.32;;;;;;;35.66;26.10;101424.88;4992321;28;20120;-76
2023/06/12 08:41:19;;;;;;;8.18;5.65;;;;;;;35.91;25.37;101433.91;4992212;28;20049;-78
2023/06/12 08:43:47;;;;;;;15.20;5.80;;;;;;;36.21;23.92;101428.78;4992155;28;20168;-78
2023/06/12 08:46:16;;;;;;;7.53;6.03;;;;;;;35.60;24.34;101426.31;4992143;28;20485;-77
2023/06/12 08:48:43;;;;;;;12.82;5.30;;;;;;;35.77;24.22;101431.56;4974461;28;20117;-77
2023/06/12 08:51:08;;;;;;;10.73;5.93;;;;;;;36.07;24.43;101425.63;4992156;28;20029;-77
2023/06/12 08:53:35;;;;;;;12.23;6.53;;;;;;;35.85;24.50;101422.25;4991990;28;20038;-76
2023/06/12 08:56:00;;;;;;;10.15;5.57;;;;;;;36.56;23.91;101420.53;4974335;28;20385;-76
2023/06/12 08:58:26;;;;;;;10.90;5.88;;;;;;;36.96;23.46;101418.66;4991849;28;20031;-77
2023/06/12 09:00:52;;;;;;;9.02;5.50;;;;;;;37.17;23.16;101412.78;4991825;28;20250;-77
2023/06/12 09:03:20;;;;;;;6.20;4.90;;;;;;;36.75;23.37;101405.88;4991771;28;20065;-77
2023/06/12 09:05:47;;;;;;;8.80;5.45;;;;;;;35.50;24.45;101417.31;5010427;28;20029;-77
2023/06/12 09:08:13;;;;;;;7.72;5.45;;;;;;;33.94;26.53;101416.66;5010647;28;20040;-76
2023/06/12 09:10:38;;;;;;;7.90;6.03;;;;;;;32.34;28.50;101412.88;5010363;28;20029;-76
2023/06/12 09:13:12;;;;;;;7.40;6.22;;;;;;;31.33;30.45;101404.88;5010450;28;20504;-76
2023/06/12 09:15:48;;;;;;;9.35;5.13;;;;;;;30.62;31.83;101407.81;5010365;28;20489;-76
2023/06/12 09:18:14;;;;;;;11.77;6.70;;;;;;;30.12;32.81;101406.09;5004261;28;20422;-76
2023/06/12 09:20:39;;;;;;;8.57;4.95;;;;;;;29.52;33.32;101406.50;4958265;28;20158;-77
2023/06/12 09:23:05;;;;;;;10.73;6.10;;;;;;;28.83;33.61;101410.19;4991431;28;20042;-77
2023/06/12 09:25:35;;;;;;;9.70;5.97;;;;;;;28.40;34.36;101401.41;5006663;28;20115;-77
2023/06/12 09:28:03;;;;;;;9.75;5.93;;;;;;;28.11;35.07;101388.81;5010159;28;20136;-76
2023/06/12 09:30:30;;;;;;;9.98;6.60;;;;;;;28.00;35.68;101392.81;5000285;28;20088;-76
2023/06/12 09:32:55;;;;;;;7.63;5.68;;;;;;;27.92;36.13;101394.31;4991195;28;20034;-76
2023/06/12 09:35:21;;;;;;;25.77;6.65;;;;;;;28.04;36.42;101395.78;4991451;28;20049;-76
2023/06/12 09:37:46;;;;;;;11.60;6.07;;;;;;;27.87;35.84;101405.38;4991183;28;20049;-77
2023/06/12 09:40:13;;;;;;;9.30;5.55;;;;;;;27.72;35.35;101400.13;4991014;28;20049;-77
2023/06/12 09:42:40;;;;;;;10.55;5.93;;;;;;;27.69;36.22;101397.97;4990982;28;20104;-76
2023/06/12 09:45:12;;;;;;;8.50;6.35;;;;;;;27.71;35.93;101395.75;5006731;28;20030;-76
2023/06/12 09:47:46;;;;;;;10.50;5.80;;;;;;;27.71;36.42;101396.56;5009666;28;20030;-77
2023/06/12 09:50:13;;;;;;;9.32;6.22;;;;;;;27.66;35.54;101401.31;5009654;28;20555;-76
2023/06/12 09:52:47;;;;;;;7.97;5.95;;;;;;;27.75;36.47;101396.78;5009668;28;20511;-76
2023/06/12 09:55:15;;;;;;;13.38;5.85;;;;;;;27.83;35.90;101404.38;5009398;28;20495;-77
2023/06/12 09:57:43;;;;;;;9.38;5.40;;;;;;;27.69;35.78;101400.72;5009886;28;20022;-77
2023/06/12 10:00:11;;;;;;;13.70;5.38;;;;;;;27.76;36.52;101404.69;4991730;28;20025;-75
2023/06/12 10:02:41;;;;;;;13.45;5.82;;;;;;;27.82;35.62;101401.91;5009508;28;20037;-76
2023/06/12 10:05:16;;;;;;;13.95;6.57;;;;;;;27.96;36.63;101408.25;5009369;28;20493;-77
2023/06/12 10:07:52;;;;;;;10.10;5.53;;;;;;;28.00;36.34;101401.03;5001846;28;20045;-78
2023/06/12 10:10:18;;;;;;;11.40;6.30;;;;;;;28.03;37.18;101399.63;4990019;28;20042;-77
2023/06/12 10:12:45;;;;;;;9.27;5.47;;;;;;;28.08;35.61;101397.59;4989383;28;20061;-77
2023/06/12 10:15:12;;;;;;;8.77;5.50;;;;;;;28.02;36.56;101390.59;4988530;28;20084;-76
2023/06/12 10:17:40;;;;;;;10.43;6.45;;;;;;;28.13;35.85;101396.72;4990158;28;20060;-78
2023/06/12 10:20:09;;;;;;;9.43;6.07;;;;;;;28.10;36.55;101391.84;4990315;28;20037;-75
2023/06/12 10:22:34;;;;;;;9.85;5.80;;;;;;;28.23;36.45;101392.97;4972808;28;20080;-75
2023/06/12 10:25:01;;;;;;;10.95;6.70;;;;;;;28.29;36.22;101389.81;4988571;28;20129;-76
2023/06/12 10:27:28;;;;;;;8.52;5.45;;;;;;;28.32;35.12;101382.91;4988211;28;20165;-73
2023/06/12 10:29:56;;;;;;;10.95;6.90;;;;;;;28.39;35.61;101389.63;4991416;28;20482;-76
2023/06/12 10:32:22;;;;;;;7.93;6.13;;;;;;;28.36;36.12;101384.75;4992314;28;20033;-75
2023/06/12 10:34:50;;;;;;;10.05;6.47;;;;;;;28.45;36.56;101387.63;4993150;28;20103;-74
2023/06/12 10:37:23;;;;;;;18.42;6.75;;;;;;;28.35;35.04;101391.38;4992248;28;20025;-75
2023/06/12 10:40:10;;;;;;;12.27;6.15;;;;;;;28.19;34.98;101379.03;4992626;28;20593;-76
2023/06/12 10:42:44;;;;;;;9.70;5.75;;;;;;;28.15;35.51;101389.00;4991871;28;20026;-77
2023/06/12 10:45:26;;;;;;;10.25;6.40;;;;;;;28.14;36.07;101374.47;4991584;28;20038;-75
2023/06/12 10:48:06;;;;;;;;;;;;;;;28.34;36.09;101376.00;4992686;28;20373;-74
2023/06/12 10:50:35;;;;;;;10.02;6.40;;;;;;;28.24;35.45;101365.22;4991770;28;19917;-74
2023/06/12 10:53:05;;;;;;;12.98;6.15;;;;;;;28.34;37.25;101367.78;4991829;28;20530;-77
2023/06/12 10:55:35;;;;;;;10.18;6.55;;;;;;;28.47;37.22;101363.44;4991853;28;21126;-74
2023/06/12 10:58:07;;;;;;;11.30;6.50;;;;;;;28.70;37.24;101377.25;4992503;28;20033;-73
2023/06/12 11:00:37;;;;;;;9.13;5.90;;;;;;;28.86;35.96;101377.75;4992400;28;20029;-77
2023/06/12 11:03:07;;;;;;;8.98;6.07;;;;;;;28.82;35.30;101363.84;4989454;28;20084;-76
2023/06/12 11:05:34;;;;;;;8.32;5.95;;;;;;;28.90;35.56;101360.34;4989505;28;20094;-77
2023/06/12 11:08:06;;;;;;;8.68;6.40;;;;;;;28.87;34.12;101352.72;4989162;28;20061;-74
2023/06/12 11:10:33;;;;;;;9.80;5.97;;;;;;;28.91;35.29;101356.47;4996794;28;20034;-73
2023/06/12 11:12:58;;;;;;;13.43;5.70;;;;;;;28.94;37.91;101355.84;5008341;28;20030;-75
2023/06/12 11:15:24;;;;;;;10.35;6.40;;;;;;;29.01;35.80;101360.94;4998969;28;20034;-73
2023/06/12 11:17:51;;;;;;;14.40;7.55;;;;;;;29.12;34.04;101361.56;4989277;28;20025;-73
2023/06/12 11:20:19;;;;;;;9.48;6.63;;;;;;;29.17;34.21;101362.25;4988684;28;20429;-74